»·PEaware :: N707CP KMFR-KOTH

N707CP :: KMFR-KOTH

FLIGHT INFORMATION

Flight Status: Arrived
Operator: Privately registered:
United States
More flights under this callsign
Pilot: Chase W. (8260)
Aircraft: PIPER PA-30 TWIN COMANCHE
(PA30)
More flights by this aircraft type
Origin: KMFR Rogue Valley Intl-Medford
United States
Destination: KOTH North Bend Mun
United States
More flights between these airports :: More routes between these airports
Route: VFR
File this flight plan on PilotEdge
Remarks:
Altitude:
(Current/Filed)
6,500ft
Speed:
(Current/Filed)
140kts
Departed: 28-Apr-18 04:26 PM
Arrived: 28-Apr-18 05:12 PM
Distance/Time
Traveled:
87nm/0:46
Distance/Time
To Go:
Arrived

Flight Plot

Page will automatically refresh every two minutes.

Flight plan parsing failed; only flown route is shown


Map Options




Map Legend


Flown Route
Filed Route
Departure Airport
Arrival Airport
Navaid (VOR, NDB)
Fix

Horizontal Profiles

Position Reports

Time Latitude Longitude Heading Altitude Ground
Speed
28-Apr-18 16:11 42.374971 -122.877521 292 1336ft 0kts
28-Apr-18 16:12 42.374971 -122.877521 292 1336ft 0kts
28-Apr-18 16:13 42.374971 -122.877521 292 1336ft 0kts
28-Apr-18 16:14 42.374971 -122.877521 292 1336ft 0kts
28-Apr-18 16:15 42.374972 -122.877522 291 1336ft 0kts
28-Apr-18 16:16 42.374972 -122.877522 291 1336ft 0kts
28-Apr-18 16:17 42.374972 -122.877522 291 1336ft 0kts
28-Apr-18 16:18 42.374977 -122.877541 292 1336ft 0kts
28-Apr-18 16:19 42.376230 -122.877165 69 1336ft 18kts
28-Apr-18 16:20 42.373966 -122.874303 159 1336ft 19kts
28-Apr-18 16:21 42.366710 -122.870544 156 1336ft 31kts
28-Apr-18 16:22 42.363933 -122.869663 76 1336ft 0kts
28-Apr-18 16:23 42.363933 -122.869663 76 1336ft 0kts
28-Apr-18 16:24 42.363942 -122.869614 76 1336ft 5kts
28-Apr-18 16:25 42.366674 -122.868935 337 1336ft 72kts
28-Apr-18 16:26 42.395068 -122.883635 340 2128ft 119kts
28-Apr-18 16:27 42.413406 -122.914421 264 3171ft 123kts
28-Apr-18 16:28 42.412185 -122.960168 271 4146ft 124kts
28-Apr-18 16:29 42.415194 -123.006806 276 5044ft 126kts
28-Apr-18 16:30 42.427342 -123.050954 298 5877ft 127kts
28-Apr-18 16:31 42.440087 -123.095016 270 6477ft 141kts
28-Apr-18 16:32 42.441835 -123.147203 271 6501ft 131kts
28-Apr-18 16:33 42.438778 -123.195742 264 6243ft 127kts
28-Apr-18 16:34 42.437579 -123.243273 274 6315ft 133kts
28-Apr-18 16:35 42.460762 -123.273970 331 6869ft 115kts
28-Apr-18 16:36 42.490659 -123.289586 349 6958ft 128kts
28-Apr-18 16:37 42.526909 -123.313601 323 6672ft 165kts
28-Apr-18 16:38 42.563178 -123.351187 322 6514ft 161kts
28-Apr-18 16:39 42.597822 -123.387606 322 6515ft 158kts
28-Apr-18 16:40 42.632196 -123.423202 323 6516ft 156kts
28-Apr-18 16:41 42.662938 -123.454978 323 6516ft 155kts
28-Apr-18 16:42 42.689642 -123.497325 280 6510ft 155kts
28-Apr-18 16:43 42.712905 -123.545746 308 6551ft 154kts
28-Apr-18 16:44 42.739029 -123.591677 308 6598ft 153kts
28-Apr-18 16:45 42.766798 -123.636374 311 6561ft 157kts
28-Apr-18 16:46 42.795513 -123.681624 310 6422ft 162kts
28-Apr-18 16:47 42.824534 -123.728476 308 6605ft 163kts
28-Apr-18 16:48 42.853275 -123.776286 310 6607ft 170kts
28-Apr-18 16:49 42.884262 -123.825468 312 6528ft 173kts
28-Apr-18 16:50 42.915408 -123.874088 310 6561ft 168kts
28-Apr-18 16:51 42.944675 -123.924389 305 6531ft 170kts
28-Apr-18 16:52 42.971135 -123.977149 303 6539ft 169kts
28-Apr-18 16:53 42.998964 -124.029289 309 6441ft 174kts
28-Apr-18 16:54 43.026185 -124.077699 304 6377ft 173kts
28-Apr-18 16:55 43.055357 -124.130665 312 6154ft 176kts
28-Apr-18 16:56 43.071349 -124.194744 286 5574ft 174kts
28-Apr-18 16:57 43.086463 -124.256604 290 4920ft 172kts
28-Apr-18 16:58 43.104980 -124.315200 295 4324ft 170kts
28-Apr-18 16:59 43.126090 -124.370804 298 3777ft 169kts
28-Apr-18 17:00 43.147093 -124.421683 280 3304ft 147kts
28-Apr-18 17:01 43.122928 -124.425981 79 2279ft 163kts
28-Apr-18 17:02 43.161246 -124.409799 8 2040ft 148kts
28-Apr-18 17:03 43.201177 -124.400894 11 2076ft 144kts
28-Apr-18 17:04 43.240249 -124.387183 17 2010ft 148kts
28-Apr-18 17:05 43.277416 -124.365624 42 1975ft 147kts
28-Apr-18 17:06 43.310277 -124.329277 18 1507ft 164kts
28-Apr-18 17:07 43.350806 -124.310382 61 1187ft 156kts
28-Apr-18 17:08 43.362634 -124.256539 77 971ft 130kts
28-Apr-18 17:09 43.382968 -124.225613 22 582ft 91kts
28-Apr-18 17:10 43.406558 -124.235707 330 158ft 80kts
28-Apr-18 17:11 43.415428 -124.243700 244 20ft 2kts
28-Apr-18 17:12 43.414912 -124.244364 192 20ft 2kts
28-Apr-18 17:13 43.414895 -124.244496 330 20ft 0kts

Navigation Log

Ident Type
Flight plan parsing failed, navigation log unavailable